createdAt,value
2023-02-19T00:00:01.686Z,9.53
2023-02-19T00:05:00.441Z,9.50
2023-02-19T00:10:00.471Z,9.49
2023-02-19T00:15:00.394Z,9.40
2023-02-19T00:20:00.411Z,9.37
2023-02-19T00:25:00.420Z,9.35
2023-02-19T00:30:00.449Z,9.27
2023-02-19T00:35:00.439Z,9.22
2023-02-19T00:40:00.442Z,9.20
2023-02-19T00:45:00.397Z,9.17
2023-02-19T00:50:00.420Z,9.14
2023-02-19T00:55:00.471Z,9.10
2023-02-19T01:00:00.426Z,9.03
2023-02-19T01:05:00.470Z,8.99
2023-02-19T01:10:00.536Z,8.95
2023-02-19T01:15:00.509Z,8.93
2023-02-19T01:20:00.443Z,8.93
2023-02-19T01:25:00.408Z,8.94
2023-02-19T01:30:00.497Z,8.97
2023-02-19T01:35:00.448Z,8.98
2023-02-19T01:40:00.442Z,8.97
2023-02-19T01:45:16.910Z,8.99
2023-02-19T01:50:00.516Z,9.01
2023-02-19T01:55:03.632Z,8.97
2023-02-19T02:00:06.116Z,8.92
2023-02-19T02:05:01.087Z,8.96
2023-02-19T02:10:01.183Z,8.95
2023-02-19T02:15:00.646Z,8.95
2023-02-19T02:20:15.937Z,8.99
2023-02-19T02:25:20.300Z,8.95
2023-02-19T02:30:01.425Z,8.92
2023-02-19T02:35:06.681Z,8.93
2023-02-19T02:40:01.978Z,8.93
2023-02-19T02:45:20.296Z,8.92
2023-02-19T02:50:00.708Z,8.90
2023-02-19T02:55:02.653Z,8.89
2023-02-19T03:00:00.891Z,8.88
2023-02-19T03:05:05.663Z,8.84
2023-02-19T03:10:04.077Z,8.83
2023-02-19T03:15:06.988Z,8.85
2023-02-19T03:20:04.927Z,8.85
2023-02-19T03:25:07.153Z,8.84
2023-02-19T03:30:07.390Z,8.88
2023-02-19T03:35:06.770Z,8.92
2023-02-19T03:40:00.680Z,8.95
2023-02-19T03:45:10.359Z,8.98
2023-02-19T03:50:10.379Z,9.00
2023-02-19T03:55:10.353Z,9.00
2023-02-19T04:00:08.162Z,9.00
2023-02-19T04:05:07.203Z,9.03
2023-02-19T04:10:02.039Z,9.03
2023-02-19T04:15:05.426Z,9.01
2023-02-19T04:20:04.441Z,9.00
2023-02-19T04:25:00.652Z,8.96
2023-02-19T04:30:00.488Z,8.92
2023-02-19T04:35:00.447Z,8.91
2023-02-19T04:40:00.483Z,8.89
2023-02-19T04:45:00.405Z,8.88
2023-02-19T04:50:00.389Z,8.86
2023-02-19T04:55:00.493Z,8.85
2023-02-19T05:00:00.966Z,8.84
2023-02-19T05:05:00.395Z,8.84
2023-02-19T05:10:00.491Z,8.81
2023-02-19T05:15:00.412Z,8.78
2023-02-19T05:20:00.459Z,8.76
2023-02-19T05:25:00.417Z,8.75
2023-02-19T05:30:00.567Z,8.72
2023-02-19T05:35:00.421Z,8.74
2023-02-19T05:40:00.446Z,8.76
2023-02-19T05:45:00.435Z,8.75
2023-02-19T05:50:00.401Z,8.79
2023-02-19T05:55:00.404Z,8.80
2023-02-19T06:00:00.522Z,8.80
2023-02-19T06:05:00.394Z,8.81
2023-02-19T06:10:00.635Z,8.78
2023-02-19T06:15:00.932Z,8.80
2023-02-19T06:20:00.796Z,8.76
2023-02-19T06:25:00.421Z,8.77
2023-02-19T06:30:00.505Z,8.75
2023-02-19T06:35:00.680Z,8.72
2023-02-19T06:40:00.420Z,8.69
2023-02-19T06:45:00.406Z,8.67
2023-02-19T06:50:00.478Z,8.65
2023-02-19T06:55:00.447Z,8.64
2023-02-19T07:00:00.462Z,8.65
2023-02-19T07:05:00.414Z,8.63
2023-02-19T07:10:00.465Z,8.62
2023-02-19T07:20:00.800Z,8.48
2023-02-19T07:25:00.636Z,8.44
2023-02-19T07:30:00.689Z,8.42
2023-02-19T07:35:00.755Z,8.43
2023-02-19T07:40:00.810Z,8.46
2023-02-19T07:45:00.805Z,8.50
2023-02-19T07:50:00.677Z,8.53
2023-02-19T07:55:00.758Z,8.56
2023-02-19T08:00:01.997Z,8.58
2023-02-19T08:05:00.690Z,8.65
2023-02-19T08:10:02.852Z,8.67
2023-02-19T08:15:00.663Z,8.79
2023-02-19T08:20:00.649Z,8.89
2023-02-19T08:25:00.653Z,8.82
2023-02-19T08:30:00.690Z,8.79
2023-02-19T08:35:00.755Z,8.75
2023-02-19T08:40:00.716Z,8.73
2023-02-19T08:45:00.706Z,8.70
2023-02-19T08:50:00.763Z,8.74
2023-02-19T08:55:01.244Z,8.75
2023-02-19T09:00:00.986Z,8.77
2023-02-19T09:05:00.706Z,8.76
2023-02-19T09:10:00.685Z,8.73
2023-02-19T09:15:00.639Z,8.71
2023-02-19T09:20:00.769Z,8.70
2023-02-19T09:25:00.873Z,8.74
2023-02-19T09:30:00.694Z,8.80
2023-02-19T09:35:00.653Z,8.94
2023-02-19T09:40:00.636Z,9.08
2023-02-19T09:45:03.390Z,9.01
2023-02-19T09:50:07.276Z,9.00
2023-02-19T09:55:03.708Z,9.02
2023-02-19T10:00:10.824Z,9.11
2023-02-19T10:05:02.257Z,9.13
2023-02-19T10:10:17.938Z,9.24
2023-02-19T10:15:16.410Z,9.61
2023-02-19T10:20:01.212Z,10.45
2023-02-19T10:25:01.464Z,10.40
2023-02-19T10:30:01.045Z,10.06
2023-02-19T10:35:11.226Z,9.81
2023-02-19T10:40:00.695Z,9.72
2023-02-19T10:45:01.562Z,9.61
2023-02-19T10:50:03.392Z,9.53
2023-02-19T10:55:20.516Z,9.53
2023-02-19T11:00:12.414Z,9.69
2023-02-19T11:05:08.099Z,9.88
2023-02-19T11:10:03.070Z,9.87
2023-02-19T11:15:18.670Z,9.85
2023-02-19T11:20:14.605Z,9.69
2023-02-19T11:25:05.588Z,9.63
2023-02-19T11:30:20.543Z,9.59
2023-02-19T11:35:15.652Z,9.43
2023-02-19T11:40:00.656Z,9.42
2023-02-19T11:45:09.066Z,9.48
2023-02-19T11:50:20.056Z,9.68
2023-02-19T11:55:10.567Z,10.11
2023-02-19T12:00:19.197Z,10.22
2023-02-19T12:05:10.594Z,10.14
2023-02-19T12:10:13.136Z,10.18
2023-02-19T12:15:20.529Z,10.13
2023-02-19T12:20:06.417Z,10.20
2023-02-19T12:25:13.814Z,10.13
2023-02-19T12:30:20.575Z,10.10
2023-02-19T12:35:13.847Z,10.02
2023-02-19T12:40:19.107Z,10.09
2023-02-19T12:45:10.137Z,10.07
2023-02-19T12:50:14.527Z,9.88
2023-02-19T12:55:15.892Z,9.85
2023-02-19T13:00:10.609Z,9.85
2023-02-19T13:05:14.212Z,9.71
2023-02-19T13:10:13.829Z,9.47
2023-02-19T13:15:08.861Z,9.35
2023-02-19T13:20:15.544Z,9.37
2023-02-19T13:25:02.366Z,9.42
2023-02-19T13:30:11.645Z,9.34
2023-02-19T13:35:12.953Z,9.27
2023-02-19T13:40:20.538Z,9.16
2023-02-19T13:45:02.612Z,9.08
2023-02-19T13:50:06.233Z,9.13
2023-02-19T13:55:20.534Z,9.17
2023-02-19T14:00:01.068Z,9.08
2023-02-19T14:05:03.625Z,8.95
2023-02-19T14:10:02.527Z,8.86
2023-02-19T14:15:20.512Z,8.68
2023-02-19T14:20:08.050Z,8.50
2023-02-19T14:25:04.553Z,8.33
2023-02-19T14:30:01.929Z,8.22
2023-02-19T14:35:00.721Z,8.16
2023-02-19T14:40:01.879Z,8.04
2023-02-19T14:45:05.240Z,8.01
2023-02-19T14:50:06.391Z,8.01
2023-02-19T14:55:07.824Z,8.00
2023-02-19T15:00:14.068Z,7.94
2023-02-19T15:05:00.685Z,7.89
2023-02-19T15:10:04.996Z,7.84
2023-02-19T15:15:03.720Z,7.80
2023-02-19T15:20:07.715Z,7.74
2023-02-19T15:25:02.657Z,7.74
2023-02-19T15:30:00.700Z,7.73
2023-02-19T15:35:02.339Z,7.76
2023-02-19T15:40:05.238Z,7.72
2023-02-19T15:45:20.552Z,7.68
2023-02-19T15:50:06.836Z,7.66
2023-02-19T15:55:17.115Z,7.62
2023-02-19T16:00:09.768Z,7.58
2023-02-19T16:05:00.677Z,7.58
2023-02-19T16:10:18.011Z,7.57
2023-02-19T16:15:11.343Z,7.56
2023-02-19T16:20:02.181Z,7.50
2023-02-19T16:25:04.397Z,7.45
2023-02-19T16:30:07.738Z,7.40
2023-02-19T16:35:00.684Z,7.41
2023-02-19T16:40:07.964Z,7.43
2023-02-19T16:45:01.115Z,7.42
2023-02-19T16:50:02.732Z,7.43
2023-02-19T16:55:00.668Z,7.41
2023-02-19T17:00:00.894Z,7.37
2023-02-19T17:05:00.706Z,7.33
2023-02-19T17:10:00.651Z,7.28
2023-02-19T17:15:00.654Z,7.21
2023-02-19T17:20:00.700Z,7.16
2023-02-19T17:25:00.641Z,7.13
2023-02-19T17:30:00.910Z,7.10
2023-02-19T17:35:00.623Z,7.04
2023-02-19T17:40:00.851Z,7.05
2023-02-19T17:45:00.635Z,7.04
2023-02-19T17:50:00.639Z,7.01
2023-02-19T17:55:00.635Z,6.99
2023-02-19T18:00:01.440Z,6.98
2023-02-19T18:05:00.634Z,6.97
2023-02-19T18:10:01.888Z,6.94
2023-02-19T18:15:00.826Z,6.93
2023-02-19T18:20:01.004Z,6.89
2023-02-19T18:25:00.677Z,6.85
2023-02-19T18:30:01.030Z,6.83
2023-02-19T18:35:00.985Z,6.76
2023-02-19T18:40:01.704Z,6.67
2023-02-19T18:45:00.690Z,6.59
2023-02-19T18:50:00.675Z,6.53
2023-02-19T18:55:03.306Z,6.53
2023-02-19T19:00:02.093Z,6.44
2023-02-19T19:05:00.624Z,6.32
2023-02-19T19:10:00.729Z,6.21
2023-02-19T19:15:00.646Z,6.10
2023-02-19T19:20:00.714Z,6.01
2023-02-19T19:25:00.673Z,5.93
2023-02-19T19:30:00.778Z,5.84
2023-02-19T19:35:01.376Z,5.78
2023-02-19T19:40:00.640Z,5.70
2023-02-19T19:45:00.969Z,5.64
2023-02-19T19:50:00.707Z,5.58
2023-02-19T19:55:00.698Z,5.49
2023-02-19T20:00:02.471Z,5.40
2023-02-19T20:05:00.638Z,5.34
2023-02-19T20:10:00.708Z,5.30
2023-02-19T20:15:00.720Z,5.24
2023-02-19T20:20:00.864Z,5.19
2023-02-19T20:25:00.632Z,5.09
2023-02-19T20:30:00.691Z,5.04
2023-02-19T20:35:00.696Z,4.99
2023-02-19T20:40:00.702Z,4.98
2023-02-19T20:45:00.628Z,5.00
2023-02-19T20:50:00.630Z,5.04
2023-02-19T20:55:00.721Z,5.06
2023-02-19T21:00:01.145Z,5.06
2023-02-19T21:05:00.678Z,5.01
2023-02-19T21:10:00.688Z,4.96
2023-02-19T21:15:01.014Z,4.93
2023-02-19T21:20:00.613Z,4.89
2023-02-19T21:25:00.638Z,4.87
2023-02-19T21:30:00.867Z,4.80
2023-02-19T21:35:00.679Z,4.75
2023-02-19T21:40:00.622Z,4.77
2023-02-19T21:45:00.661Z,4.74
2023-02-19T21:50:00.662Z,4.71
2023-02-19T21:55:00.718Z,4.76
2023-02-19T22:00:01.401Z,4.75
2023-02-19T22:05:00.611Z,4.72
2023-02-19T22:10:00.697Z,4.71
2023-02-19T22:15:00.650Z,4.69
2023-02-19T22:20:00.598Z,4.67
2023-02-19T22:25:00.648Z,4.68
2023-02-19T22:30:00.673Z,4.67
2023-02-19T22:35:00.609Z,4.66
2023-02-19T22:40:00.714Z,4.61
2023-02-19T22:45:00.651Z,4.60
2023-02-19T22:50:00.756Z,4.56
2023-02-19T22:55:00.720Z,4.56
2023-02-19T23:00:02.113Z,4.61
2023-02-19T23:05:00.621Z,4.65
2023-02-19T23:10:00.648Z,4.70
2023-02-19T23:15:00.641Z,4.76
2023-02-19T23:20:00.677Z,4.81
2023-02-19T23:25:00.650Z,4.88
2023-02-19T23:30:00.671Z,4.96
2023-02-19T23:35:00.781Z,5.03
2023-02-19T23:40:00.633Z,5.10
2023-02-19T23:45:00.689Z,5.17
2023-02-19T23:50:00.610Z,5.22
2023-02-19T23:55:00.660Z,5.32
